sensor_id;sensor_type;location;lat;lon;timestamp;P1;durP1;ratioP1;P2;durP2;ratioP2
69008;SDS011;56065;52.472;13.380;2023-05-09T00:02:04;6.97;;;3.30;;
69008;SDS011;56065;52.472;13.380;2023-05-09T00:04:30;7.60;;;3.10;;
69008;SDS011;56065;52.472;13.380;2023-05-09T00:06:56;6.97;;;3.00;;
69008;SDS011;56065;52.472;13.380;2023-05-09T00:09:22;8.37;;;3.07;;
69008;SDS011;56065;52.472;13.380;2023-05-09T00:11:47;7.53;;;3.08;;
69008;SDS011;56065;52.472;13.380;2023-05-09T00:14:12;8.30;;;2.77;;
69008;SDS011;56065;52.472;13.380;2023-05-09T00:16:38;9.23;;;3.17;;
69008;SDS011;56065;52.472;13.380;2023-05-09T00:19:03;6.80;;;3.10;;
69008;SDS011;56065;52.472;13.380;2023-05-09T00:21:28;6.40;;;2.70;;
69008;SDS011;56065;52.472;13.380;2023-05-09T00:23:54;9.60;;;3.13;;
69008;SDS011;56065;52.472;13.380;2023-05-09T00:26:21;6.90;;;2.88;;
69008;SDS011;56065;52.472;13.380;2023-05-09T00:28:47;7.60;;;2.78;;
69008;SDS011;56065;52.472;13.380;2023-05-09T00:31:12;7.20;;;2.70;;
69008;SDS011;56065;52.472;13.380;2023-05-09T00:33:37;7.10;;;2.70;;
69008;SDS011;56065;52.472;13.380;2023-05-09T00:36:03;8.03;;;2.63;;
69008;SDS011;56065;52.472;13.380;2023-05-09T00:38:28;8.30;;;2.60;;
69008;SDS011;56065;52.472;13.380;2023-05-09T00:40:54;7.03;;;2.70;;
69008;SDS011;56065;52.472;13.380;2023-05-09T00:43:20;8.50;;;2.97;;
69008;SDS011;56065;52.472;13.380;2023-05-09T00:45:45;7.43;;;2.70;;
69008;SDS011;56065;52.472;13.380;2023-05-09T00:48:11;8.02;;;2.67;;
69008;SDS011;56065;52.472;13.380;2023-05-09T00:50:38;7.67;;;2.20;;
69008;SDS011;56065;52.472;13.380;2023-05-09T00:53:03;7.03;;;2.80;;
69008;SDS011;56065;52.472;13.380;2023-05-09T00:55:29;6.67;;;2.67;;
69008;SDS011;56065;52.472;13.380;2023-05-09T00:57:54;9.40;;;2.73;;
69008;SDS011;56065;52.472;13.380;2023-05-09T01:00:20;8.60;;;2.73;;
69008;SDS011;56065;52.472;13.380;2023-05-09T01:02:46;7.07;;;2.90;;
69008;SDS011;56065;52.472;13.380;2023-05-09T01:05:14;8.02;;;2.50;;
69008;SDS011;56065;52.472;13.380;2023-05-09T01:10:29;9.23;;;2.70;;
69008;SDS011;56065;52.472;13.380;2023-05-09T01:13:09;6.40;;;2.50;;
69008;SDS011;56065;52.472;13.380;2023-05-09T01:18:35;6.45;;;2.53;;
69008;SDS011;56065;52.472;13.380;2023-05-09T01:21:12;7.50;;;2.70;;
69008;SDS011;56065;52.472;13.380;2023-05-09T01:31:58;7.20;;;2.33;;
69008;SDS011;56065;52.472;13.380;2023-05-09T01:34:27;6.95;;;2.60;;
69008;SDS011;56065;52.472;13.380;2023-05-09T01:36:55;8.47;;;2.90;;
69008;SDS011;56065;52.472;13.380;2023-05-09T01:39:23;7.05;;;2.35;;
69008;SDS011;56065;52.472;13.380;2023-05-09T01:41:51;5.70;;;2.08;;
69008;SDS011;56065;52.472;13.380;2023-05-09T01:44:19;6.38;;;2.17;;
69008;SDS011;56065;52.472;13.380;2023-05-09T01:46:46;6.18;;;2.20;;
69008;SDS011;56065;52.472;13.380;2023-05-09T01:49:12;7.70;;;2.50;;
69008;SDS011;56065;52.472;13.380;2023-05-09T01:51:39;6.15;;;2.28;;
69008;SDS011;56065;52.472;13.380;2023-05-09T01:54:05;6.43;;;1.98;;
69008;SDS011;56065;52.472;13.380;2023-05-09T01:56:31;6.38;;;2.25;;
69008;SDS011;56065;52.472;13.380;2023-05-09T01:59:00;7.88;;;2.47;;
69008;SDS011;56065;52.472;13.380;2023-05-09T02:01:26;7.90;;;2.27;;
69008;SDS011;56065;52.472;13.380;2023-05-09T02:03:53;8.00;;;2.38;;
69008;SDS011;56065;52.472;13.380;2023-05-09T02:06:19;6.87;;;2.30;;
69008;SDS011;56065;52.472;13.380;2023-05-09T02:08:46;8.50;;;2.13;;
69008;SDS011;56065;52.472;13.380;2023-05-09T02:11:12;5.88;;;2.00;;
69008;SDS011;56065;52.472;13.380;2023-05-09T02:13:37;5.33;;;1.80;;
69008;SDS011;56065;52.472;13.380;2023-05-09T02:16:04;7.35;;;2.30;;
69008;SDS011;56065;52.472;13.380;2023-05-09T02:18:31;8.18;;;2.10;;
69008;SDS011;56065;52.472;13.380;2023-05-09T02:20:58;7.47;;;1.80;;
69008;SDS011;56065;52.472;13.380;2023-05-09T02:23:23;6.93;;;1.85;;
69008;SDS011;56065;52.472;13.380;2023-05-09T02:25:49;6.83;;;2.23;;
69008;SDS011;56065;52.472;13.380;2023-05-09T02:28:14;7.18;;;2.00;;
69008;SDS011;56065;52.472;13.380;2023-05-09T02:30:43;7.33;;;2.07;;
69008;SDS011;56065;52.472;13.380;2023-05-09T02:33:11;5.18;;;1.58;;
69008;SDS011;56065;52.472;13.380;2023-05-09T02:35:38;6.30;;;1.85;;
69008;SDS011;56065;52.472;13.380;2023-05-09T02:38:06;8.32;;;2.30;;
69008;SDS011;56065;52.472;13.380;2023-05-09T02:40:32;6.03;;;2.27;;
69008;SDS011;56065;52.472;13.380;2023-05-09T02:42:58;6.50;;;2.08;;
69008;SDS011;56065;52.472;13.380;2023-05-09T02:45:23;6.10;;;1.90;;
69008;SDS011;56065;52.472;13.380;2023-05-09T02:47:49;6.67;;;2.10;;
69008;SDS011;56065;52.472;13.380;2023-05-09T02:50:14;8.13;;;2.17;;
69008;SDS011;56065;52.472;13.380;2023-05-09T02:52:39;7.53;;;1.60;;
69008;SDS011;56065;52.472;13.380;2023-05-09T02:55:05;6.10;;;2.00;;
69008;SDS011;56065;52.472;13.380;2023-05-09T02:57:31;5.75;;;2.20;;
69008;SDS011;56065;52.472;13.380;2023-05-09T02:59:57;5.77;;;2.20;;
69008;SDS011;56065;52.472;13.380;2023-05-09T03:02:22;8.13;;;2.30;;
69008;SDS011;56065;52.472;13.380;2023-05-09T03:04:48;6.75;;;1.90;;
69008;SDS011;56065;52.472;13.380;2023-05-09T03:07:13;6.60;;;2.07;;
69008;SDS011;56065;52.472;13.380;2023-05-09T03:09:38;6.50;;;2.10;;
69008;SDS011;56065;52.472;13.380;2023-05-09T03:12:04;5.70;;;2.07;;
69008;SDS011;56065;52.472;13.380;2023-05-09T03:14:29;7.78;;;2.20;;
69008;SDS011;56065;52.472;13.380;2023-05-09T03:16:55;6.00;;;2.10;;
69008;SDS011;56065;52.472;13.380;2023-05-09T03:19:20;6.90;;;2.00;;
69008;SDS011;56065;52.472;13.380;2023-05-09T03:21:46;8.93;;;2.20;;
69008;SDS011;56065;52.472;13.380;2023-05-09T03:24:11;7.37;;;2.10;;
69008;SDS011;56065;52.472;13.380;2023-05-09T03:26:36;5.63;;;1.80;;
69008;SDS011;56065;52.472;13.380;2023-05-09T03:29:02;6.70;;;2.20;;
69008;SDS011;56065;52.472;13.380;2023-05-09T03:31:28;7.63;;;2.17;;
69008;SDS011;56065;52.472;13.380;2023-05-09T03:33:53;5.83;;;1.93;;
69008;SDS011;56065;52.472;13.380;2023-05-09T03:36:19;8.90;;;2.23;;
69008;SDS011;56065;52.472;13.380;2023-05-09T03:38:44;6.50;;;1.90;;
69008;SDS011;56065;52.472;13.380;2023-05-09T03:41:11;7.80;;;2.08;;
69008;SDS011;56065;52.472;13.380;2023-05-09T03:43:36;8.60;;;2.10;;
69008;SDS011;56065;52.472;13.380;2023-05-09T03:46:02;6.80;;;1.90;;
69008;SDS011;56065;52.472;13.380;2023-05-09T03:48:27;8.10;;;2.13;;
69008;SDS011;56065;52.472;13.380;2023-05-09T03:50:53;6.70;;;2.20;;
69008;SDS011;56065;52.472;13.380;2023-05-09T03:53:18;7.33;;;2.20;;
69008;SDS011;56065;52.472;13.380;2023-05-09T03:55:44;6.85;;;1.90;;
69008;SDS011;56065;52.472;13.380;2023-05-09T03:58:10;6.90;;;2.00;;
69008;SDS011;56065;52.472;13.380;2023-05-09T04:00:35;7.25;;;2.50;;
69008;SDS011;56065;52.472;13.380;2023-05-09T04:03:01;7.93;;;2.43;;
69008;SDS011;56065;52.472;13.380;2023-05-09T04:05:26;6.57;;;2.45;;
69008;SDS011;56065;52.472;13.380;2023-05-09T04:07:52;6.77;;;1.87;;
69008;SDS011;56065;52.472;13.380;2023-05-09T04:10:17;7.47;;;2.33;;
69008;SDS011;56065;52.472;13.380;2023-05-09T04:12:42;7.43;;;2.00;;
69008;SDS011;56065;52.472;13.380;2023-05-09T04:15:08;7.43;;;2.53;;
69008;SDS011;56065;52.472;13.380;2023-05-09T04:17:34;6.43;;;2.15;;
69008;SDS011;56065;52.472;13.380;2023-05-09T04:20:00;6.90;;;2.40;;
69008;SDS011;56065;52.472;13.380;2023-05-09T04:22:26;7.70;;;2.30;;
69008;SDS011;56065;52.472;13.380;2023-05-09T04:24:51;6.30;;;2.40;;
69008;SDS011;56065;52.472;13.380;2023-05-09T04:27:16;6.90;;;2.03;;
69008;SDS011;56065;52.472;13.380;2023-05-09T04:29:42;8.23;;;2.37;;
69008;SDS011;56065;52.472;13.380;2023-05-09T04:32:07;6.30;;;2.27;;
69008;SDS011;56065;52.472;13.380;2023-05-09T04:34:32;8.30;;;2.42;;
69008;SDS011;56065;52.472;13.380;2023-05-09T04:36:58;6.23;;;2.10;;
69008;SDS011;56065;52.472;13.380;2023-05-09T04:39:23;6.87;;;2.20;;
69008;SDS011;56065;52.472;13.380;2023-05-09T04:41:49;5.93;;;2.23;;
69008;SDS011;56065;52.472;13.380;2023-05-09T04:44:14;7.33;;;2.37;;
69008;SDS011;56065;52.472;13.380;2023-05-09T04:46:41;10.27;;;2.80;;
69008;SDS011;56065;52.472;13.380;2023-05-09T04:49:06;6.50;;;2.57;;
69008;SDS011;56065;52.472;13.380;2023-05-09T04:51:31;8.07;;;3.20;;
69008;SDS011;56065;52.472;13.380;2023-05-09T04:53:57;8.03;;;2.40;;
69008;SDS011;56065;52.472;13.380;2023-05-09T04:56:22;8.67;;;2.60;;
69008;SDS011;56065;52.472;13.380;2023-05-09T04:58:48;8.37;;;2.77;;
69008;SDS011;56065;52.472;13.380;2023-05-09T05:01:13;8.10;;;2.40;;
69008;SDS011;56065;52.472;13.380;2023-05-09T05:03:39;8.17;;;2.37;;
69008;SDS011;56065;52.472;13.380;2023-05-09T05:06:05;7.40;;;2.83;;
69008;SDS011;56065;52.472;13.380;2023-05-09T05:08:30;8.90;;;2.67;;
69008;SDS011;56065;52.472;13.380;2023-05-09T05:10:57;7.45;;;2.90;;
69008;SDS011;56065;52.472;13.380;2023-05-09T05:13:22;9.53;;;2.50;;
69008;SDS011;56065;52.472;13.380;2023-05-09T05:15:48;7.53;;;2.37;;
69008;SDS011;56065;52.472;13.380;2023-05-09T05:18:13;9.98;;;2.92;;
69008;SDS011;56065;52.472;13.380;2023-05-09T05:20:39;11.23;;;2.97;;
69008;SDS011;56065;52.472;13.380;2023-05-09T05:23:05;7.38;;;2.65;;
69008;SDS011;56065;52.472;13.380;2023-05-09T05:25:31;7.20;;;2.70;;
69008;SDS011;56065;52.472;13.380;2023-05-09T05:27:56;9.43;;;2.70;;
69008;SDS011;56065;52.472;13.380;2023-05-09T05:30:22;7.20;;;2.57;;
69008;SDS011;56065;52.472;13.380;2023-05-09T05:32:47;8.00;;;2.70;;
69008;SDS011;56065;52.472;13.380;2023-05-09T05:35:12;6.70;;;2.25;;
69008;SDS011;56065;52.472;13.380;2023-05-09T05:37:38;7.53;;;2.53;;
69008;SDS011;56065;52.472;13.380;2023-05-09T05:40:04;7.20;;;2.63;;
69008;SDS011;56065;52.472;13.380;2023-05-09T05:42:30;7.15;;;2.50;;
69008;SDS011;56065;52.472;13.380;2023-05-09T05:44:56;12.50;;;2.40;;
69008;SDS011;56065;52.472;13.380;2023-05-09T05:47:22;11.40;;;3.03;;
69008;SDS011;56065;52.472;13.380;2023-05-09T05:49:47;9.37;;;2.57;;
69008;SDS011;56065;52.472;13.380;2023-05-09T05:52:12;8.53;;;2.30;;
69008;SDS011;56065;52.472;13.380;2023-05-09T05:54:38;7.05;;;2.53;;
69008;SDS011;56065;52.472;13.380;2023-05-09T05:57:04;10.07;;;2.40;;
69008;SDS011;56065;52.472;13.380;2023-05-09T05:59:29;8.97;;;2.70;;
69008;SDS011;56065;52.472;13.380;2023-05-09T06:01:54;7.90;;;2.50;;
69008;SDS011;56065;52.472;13.380;2023-05-09T06:04:20;7.43;;;2.50;;
69008;SDS011;56065;52.472;13.380;2023-05-09T06:06:45;8.47;;;2.30;;
69008;SDS011;56065;52.472;13.380;2023-05-09T06:09:10;7.07;;;2.40;;
69008;SDS011;56065;52.472;13.380;2023-05-09T06:11:36;6.20;;;2.40;;
69008;SDS011;56065;52.472;13.380;2023-05-09T06:14:01;7.70;;;2.37;;
69008;SDS011;56065;52.472;13.380;2023-05-09T06:16:27;10.13;;;2.40;;
69008;SDS011;56065;52.472;13.380;2023-05-09T06:18:52;8.48;;;2.90;;
69008;SDS011;56065;52.472;13.380;2023-05-09T06:21:17;6.83;;;2.20;;
69008;SDS011;56065;52.472;13.380;2023-05-09T06:23:43;8.77;;;2.50;;
69008;SDS011;56065;52.472;13.380;2023-05-09T06:26:08;6.77;;;2.73;;
69008;SDS011;56065;52.472;13.380;2023-05-09T06:28:33;7.67;;;2.63;;
69008;SDS011;56065;52.472;13.380;2023-05-09T06:30:59;8.03;;;2.50;;
69008;SDS011;56065;52.472;13.380;2023-05-09T06:33:25;8.10;;;2.50;;
69008;SDS011;56065;52.472;13.380;2023-05-09T06:35:50;6.03;;;2.40;;
69008;SDS011;56065;52.472;13.380;2023-05-09T06:38:16;7.43;;;2.60;;
69008;SDS011;56065;52.472;13.380;2023-05-09T06:40:41;7.28;;;2.78;;
69008;SDS011;56065;52.472;13.380;2023-05-09T06:43:06;7.50;;;2.93;;
69008;SDS011;56065;52.472;13.380;2023-05-09T06:45:32;6.57;;;2.80;;
69008;SDS011;56065;52.472;13.380;2023-05-09T06:47:58;9.45;;;2.70;;
69008;SDS011;56065;52.472;13.380;2023-05-09T06:50:23;7.23;;;2.70;;
69008;SDS011;56065;52.472;13.380;2023-05-09T06:52:48;6.80;;;2.57;;
69008;SDS011;56065;52.472;13.380;2023-05-09T06:55:14;7.70;;;2.87;;
69008;SDS011;56065;52.472;13.380;2023-05-09T06:57:39;8.23;;;2.87;;
69008;SDS011;56065;52.472;13.380;2023-05-09T07:00:05;8.27;;;2.88;;
69008;SDS011;56065;52.472;13.380;2023-05-09T07:02:31;6.82;;;2.80;;
69008;SDS011;56065;52.472;13.380;2023-05-09T07:04:56;8.67;;;2.70;;
69008;SDS011;56065;52.472;13.380;2023-05-09T07:07:22;7.47;;;2.93;;
69008;SDS011;56065;52.472;13.380;2023-05-09T07:09:47;6.90;;;2.97;;
69008;SDS011;56065;52.472;13.380;2023-05-09T07:12:12;7.87;;;2.73;;
69008;SDS011;56065;52.472;13.380;2023-05-09T07:14:38;8.20;;;3.37;;
69008;SDS011;56065;52.472;13.380;2023-05-09T07:17:05;6.05;;;2.95;;
69008;SDS011;56065;52.472;13.380;2023-05-09T07:19:32;7.18;;;2.70;;
69008;SDS011;56065;52.472;13.380;2023-05-09T07:21:58;6.73;;;3.20;;
69008;SDS011;56065;52.472;13.380;2023-05-09T07:24:23;7.40;;;3.00;;
69008;SDS011;56065;52.472;13.380;2023-05-09T07:26:48;10.00;;;3.00;;
69008;SDS011;56065;52.472;13.380;2023-05-09T07:29:14;9.13;;;3.27;;
69008;SDS011;56065;52.472;13.380;2023-05-09T07:31:39;7.33;;;2.80;;
69008;SDS011;56065;52.472;13.380;2023-05-09T07:34:04;8.37;;;2.67;;
69008;SDS011;56065;52.472;13.380;2023-05-09T07:36:30;7.27;;;2.87;;
69008;SDS011;56065;52.472;13.380;2023-05-09T07:38:55;6.03;;;3.10;;
69008;SDS011;56065;52.472;13.380;2023-05-09T07:41:20;7.47;;;3.00;;
69008;SDS011;56065;52.472;13.380;2023-05-09T07:43:46;6.72;;;2.75;;
69008;SDS011;56065;52.472;13.380;2023-05-09T07:46:11;6.97;;;2.73;;
69008;SDS011;56065;52.472;13.380;2023-05-09T07:48:37;7.17;;;2.67;;
69008;SDS011;56065;52.472;13.380;2023-05-09T07:51:02;7.00;;;2.78;;
69008;SDS011;56065;52.472;13.380;2023-05-09T07:53:28;7.70;;;2.90;;
69008;SDS011;56065;52.472;13.380;2023-05-09T07:55:53;7.57;;;2.97;;
69008;SDS011;56065;52.472;13.380;2023-05-09T07:58:19;7.40;;;2.83;;
69008;SDS011;56065;52.472;13.380;2023-05-09T08:00:44;7.75;;;2.70;;
69008;SDS011;56065;52.472;13.380;2023-05-09T08:03:09;6.40;;;2.80;;
69008;SDS011;56065;52.472;13.380;2023-05-09T08:05:35;7.23;;;2.83;;
69008;SDS011;56065;52.472;13.380;2023-05-09T08:08:00;7.50;;;2.97;;
69008;SDS011;56065;52.472;13.380;2023-05-09T08:10:25;6.70;;;2.70;;
69008;SDS011;56065;52.472;13.380;2023-05-09T08:12:54;7.05;;;3.03;;
69008;SDS011;56065;52.472;13.380;2023-05-09T08:15:20;9.93;;;2.80;;
69008;SDS011;56065;52.472;13.380;2023-05-09T08:17:45;8.47;;;3.10;;
69008;SDS011;56065;52.472;13.380;2023-05-09T08:20:11;6.70;;;2.63;;
69008;SDS011;56065;52.472;13.380;2023-05-09T08:22:37;6.13;;;3.15;;
69008;SDS011;56065;52.472;13.380;2023-05-09T08:25:04;7.50;;;3.00;;
69008;SDS011;56065;52.472;13.380;2023-05-09T08:27:30;5.90;;;2.80;;
69008;SDS011;56065;52.472;13.380;2023-05-09T08:29:55;5.93;;;2.60;;
69008;SDS011;56065;52.472;13.380;2023-05-09T08:32:21;7.20;;;3.00;;
69008;SDS011;56065;52.472;13.380;2023-05-09T08:34:46;5.67;;;2.70;;
69008;SDS011;56065;52.472;13.380;2023-05-09T08:37:12;7.13;;;2.90;;
69008;SDS011;56065;52.472;13.380;2023-05-09T08:39:37;6.00;;;2.60;;
69008;SDS011;56065;52.472;13.380;2023-05-09T08:42:02;5.30;;;2.70;;
69008;SDS011;56065;52.472;13.380;2023-05-09T08:44:28;7.35;;;2.80;;
69008;SDS011;56065;52.472;13.380;2023-05-09T08:46:55;5.63;;;2.70;;
69008;SDS011;56065;52.472;13.380;2023-05-09T08:49:23;6.07;;;3.07;;
69008;SDS011;56065;52.472;13.380;2023-05-09T08:51:50;5.93;;;2.85;;
69008;SDS011;56065;52.472;13.380;2023-05-09T08:54:16;6.00;;;2.65;;
69008;SDS011;56065;52.472;13.380;2023-05-09T08:56:42;8.57;;;3.00;;
69008;SDS011;56065;52.472;13.380;2023-05-09T08:59:08;7.13;;;2.73;;
69008;SDS011;56065;52.472;13.380;2023-05-09T09:01:33;6.53;;;2.70;;
69008;SDS011;56065;52.472;13.380;2023-05-09T09:04:04;5.60;;;2.47;;
69008;SDS011;56065;52.472;13.380;2023-05-09T09:06:32;7.07;;;2.90;;
69008;SDS011;56065;52.472;13.380;2023-05-09T09:08:57;8.38;;;2.85;;
69008;SDS011;56065;52.472;13.380;2023-05-09T09:11:23;5.63;;;2.85;;
69008;SDS011;56065;52.472;13.380;2023-05-09T09:13:52;7.07;;;2.77;;
69008;SDS011;56065;52.472;13.380;2023-05-09T09:16:19;7.50;;;3.08;;
69008;SDS011;56065;52.472;13.380;2023-05-09T09:18:46;8.60;;;3.25;;
69008;SDS011;56065;52.472;13.380;2023-05-09T09:21:13;6.82;;;2.67;;
69008;SDS011;56065;52.472;13.380;2023-05-09T09:23:43;6.13;;;2.80;;
69008;SDS011;56065;52.472;13.380;2023-05-09T09:26:11;7.53;;;2.83;;
69008;SDS011;56065;52.472;13.380;2023-05-09T09:28:37;8.02;;;3.42;;
69008;SDS011;56065;52.472;13.380;2023-05-09T09:31:17;8.47;;;3.30;;
69008;SDS011;56065;52.472;13.380;2023-05-09T09:33:45;7.72;;;2.55;;
69008;SDS011;56065;52.472;13.380;2023-05-09T09:36:11;7.55;;;3.60;;
69008;SDS011;56065;52.472;13.380;2023-05-09T09:38:39;7.07;;;3.00;;
69008;SDS011;56065;52.472;13.380;2023-05-09T09:41:06;8.95;;;2.92;;
69008;SDS011;56065;52.472;13.380;2023-05-09T09:43:31;6.43;;;2.53;;
69008;SDS011;56065;52.472;13.380;2023-05-09T09:46:01;5.47;;;2.60;;
69008;SDS011;56065;52.472;13.380;2023-05-09T09:48:29;6.85;;;3.13;;
69008;SDS011;56065;52.472;13.380;2023-05-09T09:50:57;7.45;;;3.10;;
69008;SDS011;56065;52.472;13.380;2023-05-09T09:53:29;7.67;;;3.40;;
69008;SDS011;56065;52.472;13.380;2023-05-09T09:56:03;7.78;;;3.60;;
69008;SDS011;56065;52.472;13.380;2023-05-09T09:58:28;7.85;;;3.35;;
69008;SDS011;56065;52.472;13.380;2023-05-09T10:01:07;6.27;;;3.07;;
69008;SDS011;56065;52.472;13.380;2023-05-09T10:03:38;7.18;;;3.50;;
69008;SDS011;56065;52.472;13.380;2023-05-09T10:06:08;5.43;;;3.07;;
69008;SDS011;56065;52.472;13.380;2023-05-09T10:08:35;8.60;;;3.28;;
69008;SDS011;56065;52.472;13.380;2023-05-09T10:11:00;7.13;;;3.17;;
69008;SDS011;56065;52.472;13.380;2023-05-09T10:13:25;6.93;;;2.90;;
69008;SDS011;56065;52.472;13.380;2023-05-09T10:15:53;5.93;;;3.17;;
69008;SDS011;56065;52.472;13.380;2023-05-09T10:18:20;9.45;;;3.10;;
69008;SDS011;56065;52.472;13.380;2023-05-09T10:20:50;7.18;;;3.35;;
69008;SDS011;56065;52.472;13.380;2023-05-09T10:23:17;7.57;;;3.42;;
69008;SDS011;56065;52.472;13.380;2023-05-09T10:25:48;7.45;;;3.50;;
69008;SDS011;56065;52.472;13.380;2023-05-09T10:28:26;7.20;;;3.67;;
69008;SDS011;56065;52.472;13.380;2023-05-09T10:31:41;6.30;;;3.30;;
69008;SDS011;56065;52.472;13.380;2023-05-09T10:33:52;7.85;;;3.40;;
69008;SDS011;56065;52.472;13.380;2023-05-09T10:36:20;8.45;;;3.42;;
69008;SDS011;56065;52.472;13.380;2023-05-09T10:38:46;7.93;;;4.13;;
69008;SDS011;56065;52.472;13.380;2023-05-09T10:41:13;6.73;;;3.63;;
69008;SDS011;56065;52.472;13.380;2023-05-09T10:43:40;8.18;;;3.55;;
69008;SDS011;56065;52.472;13.380;2023-05-09T10:46:06;7.30;;;3.63;;
69008;SDS011;56065;52.472;13.380;2023-05-09T10:48:33;6.93;;;3.80;;
69008;SDS011;56065;52.472;13.380;2023-05-09T10:50:59;8.02;;;4.00;;
69008;SDS011;56065;52.472;13.380;2023-05-09T10:56:30;8.70;;;3.10;;
69008;SDS011;56065;52.472;13.380;2023-05-09T10:58:56;7.57;;;3.60;;
69008;SDS011;56065;52.472;13.380;2023-05-09T11:01:32;6.90;;;3.70;;
69008;SDS011;56065;52.472;13.380;2023-05-09T11:03:59;5.90;;;3.38;;
69008;SDS011;56065;52.472;13.380;2023-05-09T11:11:57;8.63;;;3.13;;
69008;SDS011;56065;52.472;13.380;2023-05-09T11:14:32;7.53;;;2.85;;
69008;SDS011;56065;52.472;13.380;2023-05-09T11:17:02;7.63;;;3.58;;
69008;SDS011;56065;52.472;13.380;2023-05-09T11:19:34;6.73;;;3.40;;
69008;SDS011;56065;52.472;13.380;2023-05-09T11:22:01;7.32;;;3.10;;
69008;SDS011;56065;52.472;13.380;2023-05-09T11:24:30;8.27;;;3.38;;
69008;SDS011;56065;52.472;13.380;2023-05-09T11:26:56;6.78;;;2.90;;
69008;SDS011;56065;52.472;13.380;2023-05-09T11:29:25;7.90;;;2.97;;
69008;SDS011;56065;52.472;13.380;2023-05-09T11:32:04;7.97;;;3.47;;
69008;SDS011;56065;52.472;13.380;2023-05-09T11:34:31;6.95;;;3.40;;
69008;SDS011;56065;52.472;13.380;2023-05-09T11:37:10;8.03;;;2.90;;
69008;SDS011;56065;52.472;13.380;2023-05-09T11:39:56;7.03;;;2.92;;
69008;SDS011;56065;52.472;13.380;2023-05-09T11:42:27;5.97;;;3.08;;
69008;SDS011;56065;52.472;13.380;2023-05-09T11:44:53;7.13;;;3.22;;
69008;SDS011;56065;52.472;13.380;2023-05-09T11:47:19;7.37;;;3.13;;
69008;SDS011;56065;52.472;13.380;2023-05-09T11:49:46;5.95;;;3.00;;
69008;SDS011;56065;52.472;13.380;2023-05-09T11:52:12;7.03;;;3.22;;
69008;SDS011;56065;52.472;13.380;2023-05-09T11:54:38;7.33;;;2.60;;
69008;SDS011;56065;52.472;13.380;2023-05-09T11:57:04;6.50;;;2.67;;
69008;SDS011;56065;52.472;13.380;2023-05-09T11:59:30;5.85;;;2.50;;
69008;SDS011;56065;52.472;13.380;2023-05-09T12:02:00;7.80;;;2.80;;
69008;SDS011;56065;52.472;13.380;2023-05-09T12:04:30;5.95;;;2.60;;
69008;SDS011;56065;52.472;13.380;2023-05-09T12:06:59;5.80;;;2.70;;
69008;SDS011;56065;52.472;13.380;2023-05-09T12:09:29;8.65;;;2.70;;
69008;SDS011;56065;52.472;13.380;2023-05-09T12:11:57;11.82;;;2.65;;
69008;SDS011;56065;52.472;13.380;2023-05-09T12:14:30;9.47;;;2.83;;
69008;SDS011;56065;52.472;13.380;2023-05-09T12:16:57;7.72;;;2.58;;
69008;SDS011;56065;52.472;13.380;2023-05-09T12:19:23;6.63;;;3.03;;
69008;SDS011;56065;52.472;13.380;2023-05-09T12:21:59;6.27;;;2.93;;
69008;SDS011;56065;52.472;13.380;2023-05-09T12:24:26;9.68;;;2.92;;
69008;SDS011;56065;52.472;13.380;2023-05-09T12:26:52;7.75;;;2.53;;
69008;SDS011;56065;52.472;13.380;2023-05-09T12:29:21;7.75;;;2.20;;
69008;SDS011;56065;52.472;13.380;2023-05-09T12:31:48;9.57;;;2.25;;
69008;SDS011;56065;52.472;13.380;2023-05-09T12:34:14;7.37;;;2.77;;
69008;SDS011;56065;52.472;13.380;2023-05-09T12:36:42;10.00;;;2.20;;
69008;SDS011;56065;52.472;13.380;2023-05-09T12:39:14;9.05;;;3.03;;
69008;SDS011;56065;52.472;13.380;2023-05-09T12:41:43;8.50;;;4.20;;
69008;SDS011;56065;52.472;13.380;2023-05-09T12:44:21;8.37;;;4.77;;
69008;SDS011;56065;52.472;13.380;2023-05-09T12:46:56;11.15;;;2.80;;
69008;SDS011;56065;52.472;13.380;2023-05-09T12:49:23;5.93;;;2.30;;
69008;SDS011;56065;52.472;13.380;2023-05-09T12:51:49;6.30;;;2.40;;
69008;SDS011;56065;52.472;13.380;2023-05-09T12:54:28;7.97;;;2.30;;
69008;SDS011;56065;52.472;13.380;2023-05-09T12:56:55;9.90;;;2.40;;
69008;SDS011;56065;52.472;13.380;2023-05-09T12:59:22;7.00;;;2.33;;
69008;SDS011;56065;52.472;13.380;2023-05-09T13:01:52;5.90;;;2.35;;
69008;SDS011;56065;52.472;13.380;2023-05-09T13:04:22;6.07;;;3.08;;
69008;SDS011;56065;52.472;13.380;2023-05-09T13:06:55;8.95;;;2.78;;
69008;SDS011;56065;52.472;13.380;2023-05-09T13:09:25;8.70;;;2.47;;
69008;SDS011;56065;52.472;13.380;2023-05-09T13:11:51;6.20;;;2.40;;
69008;SDS011;56065;52.472;13.380;2023-05-09T13:14:17;6.82;;;2.53;;
69008;SDS011;56065;52.472;13.380;2023-05-09T13:16:44;7.03;;;2.33;;
69008;SDS011;56065;52.472;13.380;2023-05-09T13:19:10;7.67;;;2.20;;
69008;SDS011;56065;52.472;13.380;2023-05-09T13:21:35;8.65;;;2.42;;
69008;SDS011;56065;52.472;13.380;2023-05-09T13:24:01;6.80;;;2.27;;
69008;SDS011;56065;52.472;13.380;2023-05-09T13:26:27;9.27;;;2.50;;
69008;SDS011;56065;52.472;13.380;2023-05-09T13:28:53;8.37;;;2.40;;
69008;SDS011;56065;52.472;13.380;2023-05-09T13:31:19;6.15;;;2.05;;
69008;SDS011;56065;52.472;13.380;2023-05-09T13:33:44;6.40;;;2.70;;
69008;SDS011;56065;52.472;13.380;2023-05-09T13:36:10;6.83;;;2.43;;
69008;SDS011;56065;52.472;13.380;2023-05-09T13:38:35;8.57;;;2.47;;
69008;SDS011;56065;52.472;13.380;2023-05-09T13:41:04;7.70;;;2.20;;
69008;SDS011;56065;52.472;13.380;2023-05-09T13:43:33;7.22;;;2.40;;
69008;SDS011;56065;52.472;13.380;2023-05-09T13:45:59;9.27;;;2.55;;
69008;SDS011;56065;52.472;13.380;2023-05-09T13:48:24;7.10;;;2.20;;
69008;SDS011;56065;52.472;13.380;2023-05-09T13:50:50;9.43;;;2.50;;
69008;SDS011;56065;52.472;13.380;2023-05-09T13:53:15;6.57;;;2.10;;
69008;SDS011;56065;52.472;13.380;2023-05-09T13:55:40;6.57;;;2.20;;
69008;SDS011;56065;52.472;13.380;2023-05-09T13:58:06;8.93;;;2.30;;
69008;SDS011;56065;52.472;13.380;2023-05-09T14:00:32;10.68;;;2.47;;
69008;SDS011;56065;52.472;13.380;2023-05-09T14:02:57;8.97;;;2.50;;
69008;SDS011;56065;52.472;13.380;2023-05-09T14:05:23;7.53;;;2.70;;
69008;SDS011;56065;52.472;13.380;2023-05-09T14:07:48;7.47;;;2.17;;
69008;SDS011;56065;52.472;13.380;2023-05-09T14:10:13;7.13;;;2.17;;
69008;SDS011;56065;52.472;13.380;2023-05-09T14:12:39;7.97;;;2.17;;
69008;SDS011;56065;52.472;13.380;2023-05-09T14:15:08;9.38;;;2.10;;
69008;SDS011;56065;52.472;13.380;2023-05-09T14:17:33;7.63;;;2.25;;
69008;SDS011;56065;52.472;13.380;2023-05-09T14:19:59;10.17;;;2.27;;
69008;SDS011;56065;52.472;13.380;2023-05-09T14:22:24;6.87;;;2.07;;
69008;SDS011;56065;52.472;13.380;2023-05-09T14:24:49;8.53;;;2.30;;
69008;SDS011;56065;52.472;13.380;2023-05-09T14:27:15;8.73;;;1.97;;
69008;SDS011;56065;52.472;13.380;2023-05-09T14:29:40;8.30;;;2.87;;
69008;SDS011;56065;52.472;13.380;2023-05-09T14:32:07;8.57;;;2.40;;
69008;SDS011;56065;52.472;13.380;2023-05-09T14:34:36;7.15;;;2.30;;
69008;SDS011;56065;52.472;13.380;2023-05-09T14:37:02;7.38;;;2.17;;
69008;SDS011;56065;52.472;13.380;2023-05-09T14:39:28;8.30;;;2.07;;
69008;SDS011;56065;52.472;13.380;2023-05-09T14:41:53;10.70;;;2.17;;
69008;SDS011;56065;52.472;13.380;2023-05-09T14:44:18;7.10;;;2.30;;
69008;SDS011;56065;52.472;13.380;2023-05-09T14:46:43;7.90;;;2.20;;
69008;SDS011;56065;52.472;13.380;2023-05-09T14:49:09;8.10;;;2.60;;
69008;SDS011;56065;52.472;13.380;2023-05-09T14:51:34;7.17;;;2.17;;
69008;SDS011;56065;52.472;13.380;2023-05-09T14:54:00;9.53;;;2.20;;